To NAV CANADA Home Page Login to a new session Search on AWWS site Feedback and Comments Disclaimer Vers la page française équivalente Tips FAQ What's new on the site To the Forecasts and Observations / NOTAM section To "File a Flight Plan" website Publications and other links Update of the User's profile FIC Telephone Numbers My Weather Data Folder Route Weather Data Regional Weather Data Local Weather Data To the Forecasts and Observations / NOTAM section
Request Generated 04/24/2014 at 05:47:08 UTC . Weather information available at that time is displayed.

METAR/TAF

HOPE/BC    (show WxCam)

METAR CYHE 240500Z AUTO 10006KT 9SM OVC095 08/05 A2973 RMK SLP069=
METAR CYHE 240400Z AUTO 09006KT 030V130 9SM BKN130 09/05 A2974 RMK
SLP072=
METAR CYHE 240300Z AUTO 08003KT 010V100 9SM BKN140 09/05 A2976 RMK
SLP077=

CYHE - No TAF is issued for this station

Your time UTC time
Weather data provided by Environment Canada and NAV CANADA